Blue Grass Airport Lexington US
ICAO: KLEX
IATA: LEX
Category: Large
Scheduled Services: Yes

Elevation: 979 ft
TransAlt. 18000 ft.

Airport Communications:
LEXINGTON APP/DEP:120.15
ATIS:126.3
CLNC DEL:132.35
GND:121.9
LEXINGTON TWR:119.1
UNICOM:122.95

KLEX Zoom In..

If you have problems with the map follow the link
https://www.worldairports.se/pages/airport.php?
ICAO=KLEX

Runways:

(A) RW 04 length 7004 ft width 150 ft
ILS 110.10 / hdg 46

(B) RW 09 length 4000 ft width 75 ft
---- / hdg 87

(C) RW 22 length 7004 ft width 150 ft
ILS 111.75 / hdg 226

(D) RW 27 length 4000 ft width 75 ft
---- / hdg 267

Location; KLEX
Day. 10 / Time. 03.16 Zulu
* Altimeter: 29.74
* Temperature: 17° c. 62.6°f.
* Wind from: 240° Speed 10 kn with Gusts up to 19 kn.
Dewpoint: 12° c.
Visibility: 10 Statute Miles.
Clouds: Few 2300 ft.
Clouds: Scattered 2800 ft.
Clouds: Overcast 4000 ft.

KLEX 100316Z 24010G19KT 10SM FEW023 SCT028 OVC040 17/12 A2974 RMK AO2 T01720122


Wind From 240°
Speed 10 kn.

 
 
jpsmedia worldairports.se 2019   terms of use